createdAt,value
2023-02-19T00:00:36.988Z,9.50
2023-02-19T00:03:09.652Z,9.40
2023-02-19T00:05:37.556Z,9.40
2023-02-19T00:08:08.404Z,9.40
2023-02-19T00:10:36.113Z,9.40
2023-02-19T00:13:03.742Z,9.40
2023-02-19T00:15:33.104Z,9.30
2023-02-19T00:18:00.706Z,9.30
2023-02-19T00:20:28.598Z,9.30
2023-02-19T00:22:59.270Z,9.30
2023-02-19T00:25:26.964Z,9.30
2023-02-19T00:27:54.577Z,9.30
2023-02-19T00:30:23.825Z,9.20
2023-02-19T00:33:00.452Z,9.20
2023-02-19T00:35:28.052Z,9.20
2023-02-19T00:37:58.253Z,9.20
2023-02-19T00:40:26.225Z,9.20
2023-02-19T00:42:54.274Z,9.30
2023-02-19T00:45:21.997Z,9.30
2023-02-19T00:47:49.571Z,9.40
2023-02-19T00:50:17.080Z,9.40
2023-02-19T00:52:44.612Z,9.50
2023-02-19T00:55:12.113Z,9.50
2023-02-19T00:57:39.583Z,9.50
2023-02-19T01:00:07.385Z,9.40
2023-02-19T01:02:34.904Z,9.40
2023-02-19T01:05:02.397Z,9.40
2023-02-19T01:07:29.865Z,9.30
2023-02-19T01:09:57.323Z,9.30
2023-02-19T01:12:25.811Z,9.30
2023-02-19T01:14:53.655Z,9.30
2023-02-19T01:17:21.339Z,9.20
2023-02-19T01:19:48.796Z,9.20
2023-02-19T01:22:16.302Z,9.20
2023-02-19T01:24:43.708Z,9.20
2023-02-19T01:27:11.144Z,9.20
2023-02-19T01:29:38.692Z,9.10
2023-02-19T01:32:06.491Z,9.10
2023-02-19T01:34:34.725Z,9.20
2023-02-19T01:37:02.202Z,9.20
2023-02-19T01:39:29.761Z,9.20
2023-02-19T01:41:58.645Z,9.30
2023-02-19T01:44:29.028Z,9.30
2023-02-19T01:46:58.709Z,9.40
2023-02-19T01:49:31.923Z,9.40
2023-02-19T01:52:01.963Z,9.50
2023-02-19T01:54:31.104Z,9.50
2023-02-19T01:56:59.000Z,9.50
2023-02-19T01:59:26.379Z,9.60
2023-02-19T02:01:53.909Z,9.60
2023-02-19T02:04:21.377Z,9.50
2023-02-19T02:06:48.956Z,9.50
2023-02-19T02:09:35.583Z,9.40
2023-02-19T02:12:03.137Z,9.40
2023-02-19T02:14:32.911Z,9.30
2023-02-19T02:17:09.965Z,9.30
2023-02-19T02:19:43.475Z,9.20
2023-02-19T02:22:19.606Z,9.10
2023-02-19T02:25:03.270Z,9.00
2023-02-19T02:27:38.371Z,9.00
2023-02-19T02:30:09.020Z,8.90
2023-02-19T02:32:53.417Z,8.80
2023-02-19T02:35:23.943Z,8.80
2023-02-19T02:37:53.505Z,8.70
2023-02-19T02:40:20.963Z,8.70
2023-02-19T02:42:48.364Z,8.60
2023-02-19T02:45:37.909Z,8.60
2023-02-19T02:48:14.245Z,8.60
2023-02-19T02:50:44.256Z,8.50
2023-02-19T02:53:34.121Z,8.50
2023-02-19T02:56:02.719Z,8.40
2023-02-19T02:58:33.989Z,8.40
2023-02-19T03:01:37.860Z,8.40
2023-02-19T03:04:10.305Z,8.40
2023-02-19T03:06:38.151Z,8.40
2023-02-19T03:09:18.200Z,8.40
2023-02-19T03:12:05.429Z,8.30
2023-02-19T03:14:56.368Z,8.30
2023-02-19T03:17:49.075Z,8.20
2023-02-19T03:20:20.171Z,8.30
2023-02-19T03:22:48.927Z,8.30
2023-02-19T03:25:39.800Z,8.40
2023-02-19T03:28:08.945Z,8.40
2023-02-19T03:30:39.421Z,8.50
2023-02-19T03:33:13.774Z,8.50
2023-02-19T03:35:43.069Z,8.50
2023-02-19T03:38:18.857Z,8.50
2023-02-19T03:40:53.443Z,8.50
2023-02-19T03:43:34.740Z,8.60
2023-02-19T03:46:09.478Z,8.60
2023-02-19T03:48:38.300Z,8.70
2023-02-19T03:51:27.763Z,8.70
2023-02-19T03:54:02.547Z,8.70
2023-02-19T03:56:37.426Z,8.70
2023-02-19T03:59:14.466Z,8.60
2023-02-19T04:01:45.121Z,8.60
2023-02-19T04:04:20.118Z,8.50
2023-02-19T04:06:52.692Z,8.50
2023-02-19T04:09:25.288Z,8.40
2023-02-19T04:12:00.285Z,8.40
2023-02-19T04:14:35.681Z,8.30
2023-02-19T04:17:05.520Z,8.30
2023-02-19T04:19:35.545Z,8.20
2023-02-19T04:22:04.784Z,8.20
2023-02-19T04:24:36.054Z,8.20
2023-02-19T04:27:04.927Z,8.20
2023-02-19T04:29:32.429Z,8.20
2023-02-19T04:31:59.858Z,8.20
2023-02-19T04:34:27.294Z,8.20
2023-02-19T04:36:54.776Z,8.30
2023-02-19T04:39:22.229Z,8.40
2023-02-19T04:41:49.602Z,8.50
2023-02-19T04:44:16.974Z,8.50
2023-02-19T04:46:44.351Z,8.60
2023-02-19T04:49:11.886Z,8.70
2023-02-19T04:51:39.584Z,8.70
2023-02-19T04:54:06.986Z,8.80
2023-02-19T04:56:34.407Z,8.80
2023-02-19T04:59:02.530Z,8.90
2023-02-19T05:01:29.975Z,8.90
2023-02-19T05:03:57.438Z,8.90
2023-02-19T05:06:24.841Z,9.00
2023-02-19T05:08:52.260Z,9.00
2023-02-19T05:11:19.689Z,9.00
2023-02-19T05:13:47.187Z,9.10
2023-02-19T05:16:16.262Z,9.10
2023-02-19T05:18:44.474Z,9.10
2023-02-19T05:21:12.243Z,9.10
2023-02-19T05:23:40.146Z,9.10
2023-02-19T05:26:09.563Z,9.10
2023-02-19T05:28:37.062Z,9.10
2023-02-19T05:31:06.329Z,9.20
2023-02-19T05:33:34.172Z,9.20
2023-02-19T05:36:04.792Z,9.10
2023-02-19T05:38:32.363Z,9.10
2023-02-19T05:41:13.664Z,9.00
2023-02-19T05:43:42.036Z,8.90
2023-02-19T05:46:12.880Z,8.80
2023-02-19T05:48:40.648Z,8.70
2023-02-19T05:51:10.330Z,8.60
2023-02-19T05:53:38.270Z,8.50
2023-02-19T05:56:17.865Z,8.50
2023-02-19T05:58:45.384Z,8.40
2023-02-19T06:01:20.022Z,8.50
2023-02-19T06:03:47.489Z,8.50
2023-02-19T06:06:15.680Z,8.40
2023-02-19T06:08:43.408Z,8.40
2023-02-19T06:11:11.180Z,8.30
2023-02-19T06:13:38.968Z,8.30
2023-02-19T06:16:07.664Z,8.20
2023-02-19T06:18:35.323Z,8.20
2023-02-19T06:21:03.597Z,8.10
2023-02-19T06:23:31.366Z,8.10
2023-02-19T06:26:09.445Z,8.00
2023-02-19T06:28:37.498Z,8.00
2023-02-19T06:31:05.897Z,8.00
2023-02-19T06:33:33.864Z,8.00
2023-02-19T06:36:02.226Z,8.00
2023-02-19T06:38:30.626Z,8.00
2023-02-19T06:41:02.091Z,7.90
2023-02-19T06:43:29.847Z,7.90
2023-02-19T06:46:04.536Z,7.90
2023-02-19T06:48:32.298Z,7.90
2023-02-19T06:50:59.748Z,7.90
2023-02-19T06:53:27.633Z,7.80
2023-02-19T06:56:01.285Z,7.80
2023-02-19T06:58:29.414Z,7.80
2023-02-19T07:00:57.056Z,7.80
2023-02-19T07:03:26.260Z,7.70
2023-02-19T07:05:53.860Z,7.70
2023-02-19T07:08:21.671Z,7.70
2023-02-19T07:10:56.607Z,7.70
2023-02-19T07:13:24.635Z,7.70
2023-02-19T07:15:59.815Z,7.70
2023-02-19T07:18:27.640Z,7.80
2023-02-19T07:21:18.433Z,7.80
2023-02-19T07:23:45.985Z,7.80
2023-02-19T07:26:18.231Z,7.80
2023-02-19T07:28:48.762Z,7.80
2023-02-19T07:31:17.845Z,7.80
2023-02-19T07:33:45.548Z,7.80
2023-02-19T07:36:14.390Z,7.90
2023-02-19T07:38:41.808Z,7.90
2023-02-19T07:41:09.814Z,7.90
2023-02-19T07:43:38.091Z,8.00
2023-02-19T07:46:14.931Z,8.00
2023-02-19T07:48:43.268Z,8.10
2023-02-19T07:51:12.663Z,8.10
2023-02-19T07:53:40.312Z,8.10
2023-02-19T07:56:08.836Z,8.20
2023-02-19T07:58:36.737Z,8.20
2023-02-19T08:01:11.281Z,8.30
2023-02-19T08:03:42.146Z,8.30
2023-02-19T08:06:11.362Z,8.40
2023-02-19T08:08:39.583Z,8.40
2023-02-19T08:11:26.010Z,8.50
2023-02-19T08:13:53.959Z,8.50
2023-02-19T08:16:33.262Z,8.50
2023-02-19T08:19:08.466Z,8.60
2023-02-19T08:21:35.911Z,8.60
2023-02-19T08:24:03.569Z,8.70
2023-02-19T08:26:31.080Z,8.70
2023-02-19T08:28:59.147Z,8.70
2023-02-19T08:31:27.538Z,8.70
2023-02-19T08:33:55.941Z,8.80
2023-02-19T08:36:23.488Z,8.80
2023-02-19T08:38:50.951Z,8.80
2023-02-19T08:41:18.422Z,8.80
2023-02-19T08:43:54.283Z,8.80
2023-02-19T08:46:28.305Z,8.80
2023-02-19T08:48:55.897Z,8.80
2023-02-19T08:51:23.333Z,8.90
2023-02-19T08:53:51.212Z,8.90
2023-02-19T08:56:18.881Z,9.00
2023-02-19T08:58:46.478Z,9.00
2023-02-19T09:01:15.848Z,9.10
2023-02-19T09:03:49.192Z,9.20
2023-02-19T09:06:19.844Z,9.30
2023-02-19T09:08:47.389Z,9.40
2023-02-19T09:11:15.368Z,9.50
2023-02-19T09:13:43.520Z,9.60
2023-02-19T09:16:11.304Z,9.80
2023-02-19T09:18:39.327Z,9.90
2023-02-19T09:21:19.712Z,10.10
2023-02-19T09:23:47.437Z,10.30
2023-02-19T09:26:15.017Z,10.70
2023-02-19T09:28:42.482Z,11.10
2023-02-19T09:31:11.725Z,11.70
2023-02-19T09:33:46.238Z,12.20
2023-02-19T09:36:14.496Z,12.70
2023-02-19T09:39:05.478Z,13.10
2023-02-19T09:41:37.958Z,13.40
2023-02-19T09:44:06.728Z,13.50
2023-02-19T09:46:40.536Z,13.60
2023-02-19T09:49:13.383Z,13.70
2023-02-19T09:51:42.971Z,14.00
2023-02-19T09:54:15.881Z,14.30
2023-02-19T09:56:43.376Z,14.40
2023-02-19T09:59:18.313Z,14.40
2023-02-19T10:01:47.854Z,14.30
2023-02-19T10:04:15.422Z,14.20
2023-02-19T10:06:43.610Z,14.20
2023-02-19T10:09:15.062Z,14.10
2023-02-19T10:11:42.465Z,13.90
2023-02-19T10:14:17.400Z,13.80
2023-02-19T10:16:46.077Z,13.80
2023-02-19T10:19:14.181Z,13.80
2023-02-19T10:21:42.773Z,13.80
2023-02-19T10:24:17.513Z,14.00
2023-02-19T10:26:45.003Z,14.20
2023-02-19T10:29:13.014Z,14.30
2023-02-19T10:31:40.550Z,14.60
2023-02-19T10:34:17.155Z,14.90
2023-02-19T10:36:47.346Z,15.00
2023-02-19T10:39:33.799Z,15.00
2023-02-19T10:42:01.347Z,15.00
2023-02-19T10:44:30.251Z,14.90
2023-02-19T10:46:59.861Z,14.60
2023-02-19T10:49:30.267Z,14.60
2023-02-19T10:52:01.612Z,15.00
2023-02-19T10:54:31.430Z,15.70
2023-02-19T10:57:18.805Z,16.40
2023-02-19T10:59:50.946Z,17.00
2023-02-19T11:02:24.704Z,17.40
2023-02-19T11:05:03.061Z,17.50
2023-02-19T11:07:31.237Z,17.60
2023-02-19T11:09:59.275Z,17.40
2023-02-19T11:12:30.743Z,17.20
2023-02-19T11:14:59.409Z,17.00
2023-02-19T11:17:30.671Z,16.80
2023-02-19T11:20:07.118Z,16.50
2023-02-19T11:22:37.537Z,16.30
2023-02-19T11:25:14.627Z,16.10
2023-02-19T11:27:54.117Z,15.90
2023-02-19T11:30:31.880Z,15.60
2023-02-19T11:33:24.841Z,15.50
2023-02-19T11:35:57.777Z,15.20
2023-02-19T11:38:25.333Z,15.20
2023-02-19T11:41:11.844Z,15.30
2023-02-19T11:43:50.245Z,15.50
2023-02-19T11:46:22.980Z,15.80
2023-02-19T11:48:59.003Z,16.20
2023-02-19T11:51:36.007Z,16.80
2023-02-19T11:54:03.897Z,17.50
2023-02-19T11:56:40.474Z,18.40
2023-02-19T11:59:11.923Z,19.20
2023-02-19T12:02:01.672Z,20.00
2023-02-19T12:04:37.487Z,20.50
2023-02-19T12:07:22.206Z,21.00
2023-02-19T12:10:09.202Z,21.40
2023-02-19T12:12:52.376Z,21.70
2023-02-19T12:15:40.025Z,21.90
2023-02-19T12:18:13.418Z,22.10
2023-02-19T12:20:50.217Z,22.20
2023-02-19T12:23:29.547Z,22.10
2023-02-19T12:26:20.458Z,21.70
2023-02-19T12:29:00.634Z,21.30
2023-02-19T12:31:46.505Z,20.70
2023-02-19T12:34:32.793Z,20.10
2023-02-19T12:37:21.174Z,19.60
2023-02-19T12:39:48.805Z,19.50
2023-02-19T12:42:42.562Z,19.70
2023-02-19T12:45:30.182Z,20.00
2023-02-19T12:48:20.953Z,20.10
2023-02-19T12:50:52.229Z,20.20
2023-02-19T12:53:19.715Z,20.30
2023-02-19T12:55:47.811Z,20.10
2023-02-19T12:58:21.873Z,19.70
2023-02-19T13:00:51.750Z,19.30
2023-02-19T13:03:30.513Z,18.90
2023-02-19T13:06:03.505Z,18.60
2023-02-19T13:08:45.341Z,18.30
2023-02-19T13:11:22.396Z,17.90
2023-02-19T13:13:52.605Z,17.60
2023-02-19T13:16:21.155Z,17.30
2023-02-19T13:18:50.411Z,17.00
2023-02-19T13:21:40.343Z,16.80
2023-02-19T13:24:10.102Z,16.70
2023-02-19T13:27:04.277Z,16.60
2023-02-19T13:29:34.751Z,16.50
2023-02-19T13:32:20.628Z,16.40
2023-02-19T13:35:02.599Z,16.30
2023-02-19T13:37:34.700Z,16.30
2023-02-19T13:40:04.788Z,16.20
2023-02-19T13:42:33.557Z,16.10
2023-02-19T13:45:02.670Z,16.10
2023-02-19T13:47:47.911Z,16.00
2023-02-19T13:50:20.537Z,15.90
2023-02-19T13:52:48.048Z,15.80
2023-02-19T13:55:34.149Z,15.80
2023-02-19T13:58:20.363Z,15.70
2023-02-19T14:00:49.556Z,15.60
2023-02-19T14:03:31.190Z,15.50
2023-02-19T14:06:00.224Z,15.30
2023-02-19T14:08:47.521Z,15.20
2023-02-19T14:11:16.183Z,15.00
2023-02-19T14:13:49.783Z,14.90
2023-02-19T14:16:30.306Z,14.80
2023-02-19T14:18:57.801Z,14.60
2023-02-19T14:21:38.433Z,14.50
2023-02-19T14:24:06.933Z,14.30
2023-02-19T14:26:34.656Z,14.20
2023-02-19T14:29:02.628Z,14.10
2023-02-19T14:31:31.324Z,14.10
2023-02-19T14:34:00.470Z,14.00
2023-02-19T14:36:48.685Z,13.90
2023-02-19T14:39:20.580Z,13.80
2023-02-19T14:41:56.468Z,13.80
2023-02-19T14:44:25.858Z,13.80
2023-02-19T14:47:03.001Z,13.70
2023-02-19T14:49:50.722Z,13.70
2023-02-19T14:52:36.625Z,13.60
2023-02-19T14:55:08.672Z,13.60
2023-02-19T14:57:39.110Z,13.50
2023-02-19T15:00:23.657Z,13.50
2023-02-19T15:02:52.632Z,13.40
2023-02-19T15:05:27.321Z,13.40
2023-02-19T15:07:56.876Z,13.30
2023-02-19T15:10:25.417Z,13.30
2023-02-19T15:12:54.877Z,13.30
2023-02-19T15:15:23.774Z,13.30
2023-02-19T15:17:52.278Z,13.20
2023-02-19T15:20:22.889Z,13.20
2023-02-19T15:22:50.353Z,13.20
2023-02-19T15:25:18.877Z,13.10
2023-02-19T15:27:48.013Z,13.10
2023-02-19T15:30:20.299Z,13.10
2023-02-19T15:32:57.966Z,13.00
2023-02-19T15:35:26.305Z,13.00
2023-02-19T15:37:55.254Z,13.00
2023-02-19T15:40:26.208Z,13.00
2023-02-19T15:42:53.605Z,13.00
2023-02-19T15:45:23.203Z,12.90
2023-02-19T15:48:18.329Z,12.90
2023-02-19T15:50:48.059Z,12.80
2023-02-19T15:53:21.749Z,12.80
2023-02-19T15:55:58.280Z,12.80
2023-02-19T15:58:27.831Z,12.70
2023-02-19T16:01:01.511Z,12.70
2023-02-19T16:03:30.132Z,12.70
2023-02-19T16:06:14.115Z,12.70
2023-02-19T16:08:45.782Z,12.70
2023-02-19T16:11:39.605Z,12.60
2023-02-19T16:14:25.722Z,12.60
2023-02-19T16:17:20.853Z,12.60
2023-02-19T16:19:51.275Z,12.60
2023-02-19T16:22:24.414Z,12.60
2023-02-19T16:24:53.471Z,12.50
2023-02-19T16:27:50.212Z,12.50
2023-02-19T16:30:17.755Z,12.40
2023-02-19T16:32:46.912Z,12.40
2023-02-19T16:35:35.153Z,12.40
2023-02-19T16:38:02.913Z,12.40
2023-02-19T16:40:48.797Z,12.40
2023-02-19T16:43:17.153Z,12.40
2023-02-19T16:45:45.078Z,12.30
2023-02-19T16:48:13.190Z,12.30
2023-02-19T16:50:41.534Z,12.20
2023-02-19T16:53:18.569Z,12.20
2023-02-19T16:55:46.448Z,12.10
2023-02-19T16:58:14.193Z,12.10
2023-02-19T17:00:42.262Z,12.00
2023-02-19T17:03:15.994Z,12.00
2023-02-19T17:05:44.440Z,12.00
2023-02-19T17:08:24.599Z,12.00
2023-02-19T17:10:56.068Z,11.90
2023-02-19T17:13:28.026Z,11.80
2023-02-19T17:15:56.343Z,11.80
2023-02-19T17:18:27.889Z,11.70
2023-02-19T17:21:16.192Z,11.70
2023-02-19T17:23:43.632Z,11.50
2023-02-19T17:26:14.585Z,11.50
2023-02-19T17:28:42.125Z,11.40
2023-02-19T17:31:14.553Z,11.30
2023-02-19T17:33:45.615Z,11.20
2023-02-19T17:36:18.849Z,11.20
2023-02-19T17:38:47.136Z,11.10
2023-02-19T17:41:14.617Z,10.90
2023-02-19T17:43:42.194Z,10.90
2023-02-19T17:46:15.320Z,10.80
2023-02-19T17:48:42.881Z,10.70
2023-02-19T17:51:10.639Z,10.60
2023-02-19T17:53:38.531Z,10.60
2023-02-19T17:56:07.416Z,10.50
2023-02-19T17:58:35.359Z,10.50
2023-02-19T18:01:04.622Z,10.40
2023-02-19T18:03:32.117Z,10.40
2023-02-19T18:06:12.685Z,10.40
2023-02-19T18:08:42.186Z,10.30
2023-02-19T18:11:12.448Z,10.30
2023-02-19T18:13:40.439Z,10.20
2023-02-19T18:16:08.379Z,10.20
2023-02-19T18:18:38.116Z,10.10
2023-02-19T18:21:08.476Z,10.00
2023-02-19T18:23:35.955Z,10.00
2023-02-19T18:26:03.829Z,10.00
2023-02-19T18:28:31.276Z,9.90
2023-02-19T18:30:58.920Z,9.90
2023-02-19T18:33:26.424Z,9.90
2023-02-19T18:35:54.203Z,9.80
2023-02-19T18:38:21.737Z,9.90
2023-02-19T18:40:54.024Z,9.90
2023-02-19T18:43:21.962Z,9.90
2023-02-19T18:45:50.015Z,9.90
2023-02-19T18:48:20.351Z,9.90
2023-02-19T18:50:48.268Z,9.90
2023-02-19T18:53:16.067Z,9.90
2023-02-19T18:55:43.568Z,9.90
2023-02-19T18:58:11.936Z,9.90
2023-02-19T19:00:39.671Z,9.90
2023-02-19T19:03:07.217Z,9.90
2023-02-19T19:05:34.802Z,9.80
2023-02-19T19:08:02.591Z,9.80
2023-02-19T19:10:30.797Z,9.80
2023-02-19T19:12:58.934Z,9.70
2023-02-19T19:15:26.876Z,9.80
2023-02-19T19:17:54.676Z,9.80
2023-02-19T19:20:23.177Z,9.80
2023-02-19T19:22:53.821Z,9.70
2023-02-19T19:25:23.023Z,9.70
2023-02-19T19:27:51.981Z,9.70
2023-02-19T19:30:20.333Z,9.70
2023-02-19T19:32:49.081Z,9.60
2023-02-19T19:35:17.460Z,9.60
2023-02-19T19:37:44.970Z,9.50
2023-02-19T19:40:12.905Z,9.50
2023-02-19T19:42:40.697Z,9.50
2023-02-19T19:45:09.633Z,9.40
2023-02-19T19:47:37.444Z,9.50
2023-02-19T19:50:05.162Z,9.40
2023-02-19T19:52:32.655Z,9.30
2023-02-19T19:55:00.211Z,9.30
2023-02-19T19:57:27.780Z,9.30
2023-02-19T19:59:55.288Z,9.30
2023-02-19T20:02:23.796Z,9.20
2023-02-19T20:04:51.290Z,9.20
2023-02-19T20:07:18.995Z,9.20
2023-02-19T20:09:47.151Z,9.10
2023-02-19T20:12:14.649Z,9.10
2023-02-19T20:14:46.075Z,9.10
2023-02-19T20:17:13.925Z,9.00
2023-02-19T20:19:41.381Z,9.00
2023-02-19T20:22:08.822Z,8.90
2023-02-19T20:24:36.300Z,8.90
2023-02-19T20:27:04.210Z,8.80
2023-02-19T20:29:33.107Z,8.80
2023-02-19T20:32:02.594Z,8.80
2023-02-19T20:34:30.419Z,8.70
2023-02-19T20:36:57.852Z,8.70
2023-02-19T20:39:28.948Z,8.70
2023-02-19T20:41:57.682Z,8.60
2023-02-19T20:44:26.149Z,8.60
2023-02-19T20:46:53.886Z,8.50
2023-02-19T20:49:22.550Z,8.50
2023-02-19T20:51:52.050Z,8.50
2023-02-19T20:54:20.644Z,8.40
2023-02-19T20:56:48.987Z,8.40
2023-02-19T20:59:17.297Z,8.40
2023-02-19T21:01:44.859Z,8.40
2023-02-19T21:04:12.659Z,8.40
2023-02-19T21:06:40.477Z,8.40
2023-02-19T21:09:08.032Z,8.40
2023-02-19T21:11:35.458Z,8.30
2023-02-19T21:14:03.235Z,8.30
2023-02-19T21:16:31.407Z,8.20
2023-02-19T21:18:59.544Z,8.20
2023-02-19T21:21:31.517Z,8.20
2023-02-19T21:23:59.578Z,8.20
2023-02-19T21:26:38.265Z,8.20
2023-02-19T21:29:07.117Z,8.20
2023-02-19T21:31:39.558Z,8.10
2023-02-19T21:34:10.536Z,8.20
2023-02-19T21:36:38.352Z,8.20
2023-02-19T21:39:10.477Z,8.20
2023-02-19T21:41:39.089Z,8.20
2023-02-19T21:44:06.734Z,8.10
2023-02-19T21:46:37.253Z,8.10
2023-02-19T21:49:04.982Z,8.10
2023-02-19T21:51:34.066Z,8.10
2023-02-19T21:54:05.748Z,8.10
2023-02-19T21:56:36.223Z,8.00
2023-02-19T21:59:04.568Z,8.10
2023-02-19T22:01:38.862Z,8.00
2023-02-19T22:04:07.739Z,8.00
2023-02-19T22:06:35.324Z,8.00
2023-02-19T22:09:05.205Z,8.00
2023-02-19T22:11:36.015Z,8.00
2023-02-19T22:14:04.120Z,8.00
2023-02-19T22:16:32.126Z,7.90
2023-02-19T22:19:00.006Z,7.90
2023-02-19T22:21:28.651Z,7.90
2023-02-19T22:23:56.086Z,7.90
2023-02-19T22:26:25.796Z,7.90
2023-02-19T22:28:53.676Z,7.90
2023-02-19T22:31:22.488Z,7.90
2023-02-19T22:33:50.652Z,7.90
2023-02-19T22:36:19.940Z,7.90
2023-02-19T22:38:47.659Z,7.90
2023-02-19T22:41:15.978Z,7.80
2023-02-19T22:43:43.680Z,7.80
2023-02-19T22:46:13.868Z,7.80
2023-02-19T22:48:41.624Z,7.80
2023-02-19T22:51:10.461Z,7.70
2023-02-19T22:53:37.888Z,7.70
2023-02-19T22:56:05.442Z,7.70
2023-02-19T22:58:32.975Z,7.60
2023-02-19T23:01:02.808Z,7.60
2023-02-19T23:03:30.269Z,7.60
2023-02-19T23:05:57.768Z,7.60
2023-02-19T23:08:25.204Z,7.60
2023-02-19T23:10:52.636Z,7.50
2023-02-19T23:13:20.025Z,7.50
2023-02-19T23:15:47.463Z,7.50
2023-02-19T23:18:14.883Z,7.50
2023-02-19T23:20:42.288Z,7.60
2023-02-19T23:23:09.702Z,7.50
2023-02-19T23:25:37.120Z,7.50
2023-02-19T23:28:04.813Z,7.50
2023-02-19T23:30:32.409Z,7.40
2023-02-19T23:32:59.964Z,7.40
2023-02-19T23:35:27.424Z,7.40
2023-02-19T23:37:55.960Z,7.40
2023-02-19T23:40:23.522Z,7.30
2023-02-19T23:42:51.093Z,7.30
2023-02-19T23:45:18.671Z,7.30
2023-02-19T23:47:46.254Z,7.20
2023-02-19T23:50:15.322Z,7.20
2023-02-19T23:52:42.971Z,7.20
2023-02-19T23:55:10.456Z,7.20
2023-02-19T23:57:38.246Z,7.20
